sensor_id;sensor_type;location;lat;lon;timestamp;pressure;altitude;pressure_sealevel;temperature;humidity
29371;BME280;16357;52.188;7.838;2023-04-19T00:02:10;102089.69;;;12.59;51.55
29371;BME280;16357;52.188;7.838;2023-04-19T00:04:37;102086.41;;;12.56;51.51
29371;BME280;16357;52.188;7.838;2023-04-19T00:07:03;102088.66;;;12.50;51.68
29371;BME280;16357;52.188;7.838;2023-04-19T00:09:30;102094.47;;;12.46;51.62
29371;BME280;16357;52.188;7.838;2023-04-19T00:11:56;102085.78;;;12.42;51.82
29371;BME280;16357;52.188;7.838;2023-04-19T00:14:23;102082.66;;;12.37;51.96
29371;BME280;16357;52.188;7.838;2023-04-19T00:16:49;102084.66;;;12.35;52.05
29371;BME280;16357;52.188;7.838;2023-04-19T00:19:15;102090.28;;;12.32;52.07
29371;BME280;16357;52.188;7.838;2023-04-19T00:21:43;102083.47;;;12.28;52.02
29371;BME280;16357;52.188;7.838;2023-04-19T00:24:09;102082.91;;;12.24;52.27
29371;BME280;16357;52.188;7.838;2023-04-19T00:26:35;102095.63;;;12.22;52.36
29371;BME280;16357;52.188;7.838;2023-04-19T00:29:02;102095.03;;;12.19;52.36
29371;BME280;16357;52.188;7.838;2023-04-19T00:31:28;102086.25;;;12.17;52.56
29371;BME280;16357;52.188;7.838;2023-04-19T00:33:55;102087.38;;;12.14;52.32
29371;BME280;16357;52.188;7.838;2023-04-19T00:36:22;102086.91;;;12.09;52.63
29371;BME280;16357;52.188;7.838;2023-04-19T00:38:48;102085.34;;;12.06;52.61
29371;BME280;16357;52.188;7.838;2023-04-19T00:41:15;102084.75;;;12.03;52.75
29371;BME280;16357;52.188;7.838;2023-04-19T00:43:41;102085.88;;;12.00;53.16
29371;BME280;16357;52.188;7.838;2023-04-19T00:46:08;102089.53;;;11.99;53.15
29371;BME280;16357;52.188;7.838;2023-04-19T00:48:35;102084.44;;;11.96;53.14
29371;BME280;16357;52.188;7.838;2023-04-19T00:51:01;102088.97;;;11.96;53.09
29371;BME280;16357;52.188;7.838;2023-04-19T00:53:29;102074.78;;;11.94;53.09
29371;BME280;16357;52.188;7.838;2023-04-19T00:55:56;102078.44;;;11.93;53.03
29371;BME280;16357;52.188;7.838;2023-04-19T00:58:27;102076.75;;;11.92;53.37
29371;BME280;16357;52.188;7.838;2023-04-19T01:00:55;102080.44;;;11.91;53.15
29371;BME280;16357;52.188;7.838;2023-04-19T01:03:22;102075.06;;;11.91;53.28
29371;BME280;16357;52.188;7.838;2023-04-19T01:05:48;102069.69;;;11.91;53.26
29371;BME280;16357;52.188;7.838;2023-04-19T01:08:15;102071.53;;;11.90;53.36
29371;BME280;16357;52.188;7.838;2023-04-19T01:10:41;102069.69;;;11.91;53.29
29371;BME280;16357;52.188;7.838;2023-04-19T01:13:08;102067.00;;;11.91;53.19
29371;BME280;16357;52.188;7.838;2023-04-19T01:15:35;102071.53;;;11.90;53.11
29371;BME280;16357;52.188;7.838;2023-04-19T01:18:02;102069.81;;;11.89;52.96
29371;BME280;16357;52.188;7.838;2023-04-19T01:20:28;102069.81;;;11.89;52.92
29371;BME280;16357;52.188;7.838;2023-04-19T01:22:55;102069.81;;;11.89;53.03
29371;BME280;16357;52.188;7.838;2023-04-19T01:25:21;102069.97;;;11.88;52.96
29371;BME280;16357;52.188;7.838;2023-04-19T01:27:48;102065.53;;;11.86;52.62
29371;BME280;16357;52.188;7.838;2023-04-19T01:30:14;102069.19;;;11.85;52.81
29371;BME280;16357;52.188;7.838;2023-04-19T01:32:41;102067.63;;;11.83;52.49
29371;BME280;16357;52.188;7.838;2023-04-19T01:35:07;102077.78;;;11.79;52.40
29371;BME280;16357;52.188;7.838;2023-04-19T01:37:36;102074.38;;;11.77;52.20
29371;BME280;16357;52.188;7.838;2023-04-19T01:40:06;102072.66;;;11.76;52.28
29371;BME280;16357;52.188;7.838;2023-04-19T01:42:33;102076.63;;;11.72;52.33
29371;BME280;16357;52.188;7.838;2023-04-19T01:45:00;102074.03;;;11.71;52.31
29371;BME280;16357;52.188;7.838;2023-04-19T01:47:26;102070.63;;;11.69;52.23
29371;BME280;16357;52.188;7.838;2023-04-19T01:49:52;102071.63;;;11.68;52.41
29371;BME280;16357;52.188;7.838;2023-04-19T01:52:19;102079.81;;;11.66;52.26
29371;BME280;16357;52.188;7.838;2023-04-19T01:54:46;102081.66;;;11.65;52.53
29371;BME280;16357;52.188;7.838;2023-04-19T01:57:12;102081.66;;;11.65;52.31
29371;BME280;16357;52.188;7.838;2023-04-19T01:59:41;102074.44;;;11.66;51.92
29371;BME280;16357;52.188;7.838;2023-04-19T02:02:07;102079.81;;;11.66;51.79
29371;BME280;16357;52.188;7.838;2023-04-19T02:04:34;102075.16;;;11.68;51.69
29371;BME280;16357;52.188;7.838;2023-04-19T02:07:01;102074.31;;;11.68;51.70
29371;BME280;16357;52.188;7.838;2023-04-19T02:09:27;102076.00;;;11.69;52.07
29371;BME280;16357;52.188;7.838;2023-04-19T02:11:53;102069.66;;;11.70;51.99
29371;BME280;16357;52.188;7.838;2023-04-19T02:14:20;102075.88;;;11.70;52.00
29371;BME280;16357;52.188;7.838;2023-04-19T02:16:47;102078.31;;;11.73;52.04
29371;BME280;16357;52.188;7.838;2023-04-19T02:19:14;102079.16;;;11.74;52.08
29371;BME280;16357;52.188;7.838;2023-04-19T02:21:40;102069.97;;;11.76;51.80
29371;BME280;16357;52.188;7.838;2023-04-19T02:24:07;102072.66;;;11.76;51.79
29371;BME280;16357;52.188;7.838;2023-04-19T02:26:33;102075.22;;;11.78;51.57
29371;BME280;16357;52.188;7.838;2023-04-19T02:28:59;102079.75;;;11.77;51.37
29371;BME280;16357;52.188;7.838;2023-04-19T02:31:26;102061.06;;;11.76;51.02
29371;BME280;16357;52.188;7.838;2023-04-19T02:33:52;102069.00;;;11.77;51.20
29371;BME280;16357;52.188;7.838;2023-04-19T02:36:19;102072.66;;;11.76;50.74
29371;BME280;16357;52.188;7.838;2023-04-19T02:38:45;102070.97;;;11.75;50.46
29371;BME280;16357;52.188;7.838;2023-04-19T02:41:12;102068.41;;;11.74;50.23
29371;BME280;16357;52.188;7.838;2023-04-19T02:43:38;102076.63;;;11.72;49.99
29371;BME280;16357;52.188;7.838;2023-04-19T02:46:04;102072.34;;;11.70;49.81
29371;BME280;16357;52.188;7.838;2023-04-19T02:48:31;102076.88;;;11.69;49.69
29371;BME280;16357;52.188;7.838;2023-04-19T02:50:58;102077.13;;;11.66;49.60
29371;BME280;16357;52.188;7.838;2023-04-19T02:53:24;102077.13;;;11.66;49.09
29371;BME280;16357;52.188;7.838;2023-04-19T02:55:51;102080.91;;;11.63;49.04
29371;BME280;16357;52.188;7.838;2023-04-19T02:58:17;102089.13;;;11.62;49.03
29371;BME280;16357;52.188;7.838;2023-04-19T03:00:43;102082.03;;;11.61;48.58
29371;BME280;16357;52.188;7.838;2023-04-19T03:03:10;102091.22;;;11.58;48.60
29371;BME280;16357;52.188;7.838;2023-04-19T03:05:36;102087.94;;;11.55;48.62
29371;BME280;16357;52.188;7.838;2023-04-19T03:08:03;102089.03;;;11.52;48.60
29371;BME280;16357;52.188;7.838;2023-04-19T03:10:29;102088.47;;;11.49;48.02
29371;BME280;16357;52.188;7.838;2023-04-19T03:12:56;102085.16;;;11.45;47.73
29371;BME280;16357;52.188;7.838;2023-04-19T03:15:22;102087.16;;;11.43;47.01
29371;BME280;16357;52.188;7.838;2023-04-19T03:17:48;102087.38;;;11.40;46.52
29371;BME280;16357;52.188;7.838;2023-04-19T03:20:15;102092.16;;;11.36;46.35
29371;BME280;16357;52.188;7.838;2023-04-19T03:22:42;102091.59;;;11.33;45.50
29371;BME280;16357;52.188;7.838;2023-04-19T03:25:08;102087.44;;;11.29;45.44
29371;BME280;16357;52.188;7.838;2023-04-19T03:27:38;102092.34;;;11.24;44.84
29371;BME280;16357;52.188;7.838;2023-04-19T03:30:05;102092.75;;;11.19;44.74
29371;BME280;16357;52.188;7.838;2023-04-19T03:32:31;102092.25;;;11.14;44.67
29371;BME280;16357;52.188;7.838;2023-04-19T03:34:58;102091.66;;;11.10;44.37
29371;BME280;16357;52.188;7.838;2023-04-19T03:37:24;102099.97;;;11.07;44.22
29371;BME280;16357;52.188;7.838;2023-04-19T03:39:51;102092.28;;;11.03;44.38
29371;BME280;16357;52.188;7.838;2023-04-19T03:42:17;102090.69;;;11.00;43.93
29371;BME280;16357;52.188;7.838;2023-04-19T03:44:43;102092.78;;;10.96;44.08
29371;BME280;16357;52.188;7.838;2023-04-19T03:47:10;102090.34;;;10.93;43.66
29371;BME280;16357;52.188;7.838;2023-04-19T03:49:36;102089.75;;;10.90;43.62
29371;BME280;16357;52.188;7.838;2023-04-19T03:52:03;102082.94;;;10.86;43.49
29371;BME280;16357;52.188;7.838;2023-04-19T03:54:29;102079.66;;;10.82;43.41
29371;BME280;16357;52.188;7.838;2023-04-19T03:56:56;102090.75;;;10.77;42.93
29371;BME280;16357;52.188;7.838;2023-04-19T03:59:22;102083.06;;;10.73;43.10
29371;BME280;16357;52.188;7.838;2023-04-19T04:01:48;102083.56;;;10.67;42.58
29371;BME280;16357;52.188;7.838;2023-04-19T04:04:15;102083.09;;;10.62;42.83
29371;BME280;16357;52.188;7.838;2023-04-19T04:06:42;102083.56;;;10.55;42.74
29371;BME280;16357;52.188;7.838;2023-04-19T04:09:09;102081.38;;;10.49;42.66
29371;BME280;16357;52.188;7.838;2023-04-19T04:11:35;102088.09;;;10.44;42.49
29371;BME280;16357;52.188;7.838;2023-04-19T04:14:02;102099.31;;;10.38;42.82
29371;BME280;16357;52.188;7.838;2023-04-19T04:16:29;102084.69;;;10.30;42.52
29371;BME280;16357;52.188;7.838;2023-04-19T04:18:55;102091.47;;;10.23;42.88
29371;BME280;16357;52.188;7.838;2023-04-19T04:21:22;102102.78;;;10.16;42.42
29371;BME280;16357;52.188;7.838;2023-04-19T04:23:49;102086.47;;;10.07;42.79
29371;BME280;16357;52.188;7.838;2023-04-19T04:26:17;102100.47;;;10.00;42.98
29371;BME280;16357;52.188;7.838;2023-04-19T04:28:45;102096.66;;;9.91;42.98
29371;BME280;16357;52.188;7.838;2023-04-19T04:31:11;102103.59;;;9.82;43.05
29371;BME280;16357;52.188;7.838;2023-04-19T04:33:38;102106.88;;;9.75;42.96
29371;BME280;16357;52.188;7.838;2023-04-19T04:36:05;102105.88;;;9.64;42.89
29371;BME280;16357;52.188;7.838;2023-04-19T04:38:34;102108.28;;;9.56;42.85
29371;BME280;16357;52.188;7.838;2023-04-19T04:41:00;102099.97;;;9.48;43.59
29371;BME280;16357;52.188;7.838;2023-04-19T04:43:27;102108.56;;;9.40;43.46
29371;BME280;16357;52.188;7.838;2023-04-19T04:45:55;102111.69;;;9.34;43.63
29371;BME280;16357;52.188;7.838;2023-04-19T04:48:23;102113.25;;;9.26;43.80
29371;BME280;16357;52.188;7.838;2023-04-19T04:50:49;102119.06;;;9.19;43.61
29371;BME280;16357;52.188;7.838;2023-04-19T04:53:16;102111.47;;;9.13;44.12
29371;BME280;16357;52.188;7.838;2023-04-19T04:55:43;102106.56;;;9.07;44.22
29371;BME280;16357;52.188;7.838;2023-04-19T04:58:09;102114.06;;;9.02;44.37
29371;BME280;16357;52.188;7.838;2023-04-19T05:00:36;102126.09;;;8.96;44.47
29371;BME280;16357;52.188;7.838;2023-04-19T05:03:02;102122.06;;;8.91;44.64
29371;BME280;16357;52.188;7.838;2023-04-19T05:05:29;102118.72;;;8.87;44.36
29371;BME280;16357;52.188;7.838;2023-04-19T05:07:55;102122.69;;;8.82;44.94
29371;BME280;16357;52.188;7.838;2023-04-19T05:10:22;102121.22;;;8.77;44.68
29371;BME280;16357;52.188;7.838;2023-04-19T05:12:48;102125.94;;;8.74;45.19
29371;BME280;16357;52.188;7.838;2023-04-19T05:15:15;102122.63;;;8.70;45.22
29371;BME280;16357;52.188;7.838;2023-04-19T05:17:41;102123.81;;;8.66;45.53
29371;BME280;16357;52.188;7.838;2023-04-19T05:20:08;102126.59;;;8.65;45.43
29371;BME280;16357;52.188;7.838;2023-04-19T05:22:35;102133.03;;;8.62;45.30
29371;BME280;16357;52.188;7.838;2023-04-19T05:25:01;102129.59;;;8.60;45.61
29371;BME280;16357;52.188;7.838;2023-04-19T05:27:28;102135.16;;;8.57;45.42
29371;BME280;16357;52.188;7.838;2023-04-19T05:29:54;102130.78;;;8.56;45.52
29371;BME280;16357;52.188;7.838;2023-04-19T05:32:21;102126.38;;;8.55;45.89
29371;BME280;16357;52.188;7.838;2023-04-19T05:34:47;102132.72;;;8.54;45.90
29371;BME280;16357;52.188;7.838;2023-04-19T05:37:14;102133.66;;;8.53;45.63
29371;BME280;16357;52.188;7.838;2023-04-19T05:39:40;102138.16;;;8.52;45.58
29371;BME280;16357;52.188;7.838;2023-04-19T05:42:09;102136.34;;;8.53;45.84
29371;BME280;16357;52.188;7.838;2023-04-19T05:44:36;102130.03;;;8.54;46.39
29371;BME280;16357;52.188;7.838;2023-04-19T05:47:02;102130.78;;;8.56;46.55
29371;BME280;16357;52.188;7.838;2023-04-19T05:49:28;102138.69;;;8.57;46.08
29371;BME280;16357;52.188;7.838;2023-04-19T05:51:55;102136.69;;;8.61;46.10
29371;BME280;16357;52.188;7.838;2023-04-19T05:54:22;102132.19;;;8.62;46.03
29371;BME280;16357;52.188;7.838;2023-04-19T05:56:48;102131.09;;;8.64;46.04
29371;BME280;16357;52.188;7.838;2023-04-19T05:59:15;102130.13;;;8.65;46.04
29371;BME280;16357;52.188;7.838;2023-04-19T06:01:41;102128.19;;;8.67;46.05
29371;BME280;16357;52.188;7.838;2023-04-19T06:04:07;102125.41;;;8.69;46.08
29371;BME280;16357;52.188;7.838;2023-04-19T06:06:34;102124.44;;;8.70;46.18
29371;BME280;16357;52.188;7.838;2023-04-19T06:09:00;102138.59;;;8.72;46.28
29371;BME280;16357;52.188;7.838;2023-04-19T06:11:27;102126.81;;;8.74;46.16
29371;BME280;16357;52.188;7.838;2023-04-19T06:14:12;102129.13;;;8.79;46.37
29371;BME280;16357;52.188;7.838;2023-04-19T06:16:40;102135.97;;;8.83;46.33
29371;BME280;16357;52.188;7.838;2023-04-19T06:19:06;102131.25;;;8.87;46.26
29371;BME280;16357;52.188;7.838;2023-04-19T06:21:33;102130.94;;;8.91;46.25
29371;BME280;16357;52.188;7.838;2023-04-19T06:24:00;102128.88;;;8.95;46.00
29371;BME280;16357;52.188;7.838;2023-04-19T06:26:27;102134.03;;;8.98;45.86
29371;BME280;16357;52.188;7.838;2023-04-19T06:28:53;102119.66;;;8.99;45.95
29371;BME280;16357;52.188;7.838;2023-04-19T06:31:20;102119.44;;;9.02;46.29
29371;BME280;16357;52.188;7.838;2023-04-19T06:33:46;102123.72;;;9.05;46.11
29371;BME280;16357;52.188;7.838;2023-04-19T06:36:13;102122.63;;;9.07;45.80
29371;BME280;16357;52.188;7.838;2023-04-19T06:38:39;102122.41;;;9.10;46.12
29371;BME280;16357;52.188;7.838;2023-04-19T06:41:06;102115.03;;;9.14;45.73
29371;BME280;16357;52.188;7.838;2023-04-19T06:43:34;102122.81;;;9.17;45.99
29371;BME280;16357;52.188;7.838;2023-04-19T06:46:01;102125.13;;;9.21;46.06
29371;BME280;16357;52.188;7.838;2023-04-19T06:48:29;102115.81;;;9.27;46.27
29371;BME280;16357;52.188;7.838;2023-04-19T06:50:56;102112.66;;;9.33;46.07
29371;BME280;16357;52.188;7.838;2023-04-19T06:53:22;102110.38;;;9.40;46.12
29371;BME280;16357;52.188;7.838;2023-04-19T06:55:57;102113.34;;;9.48;45.77
29371;BME280;16357;52.188;7.838;2023-04-19T06:58:25;102119.94;;;9.55;45.97
29371;BME280;16357;52.188;7.838;2023-04-19T07:00:52;102116.69;;;9.63;45.12
29371;BME280;16357;52.188;7.838;2023-04-19T07:03:19;102120.72;;;9.68;45.45
29371;BME280;16357;52.188;7.838;2023-04-19T07:05:46;102119.28;;;9.76;45.17
29371;BME280;16357;52.188;7.838;2023-04-19T07:08:13;102114.44;;;9.81;45.19
29371;BME280;16357;52.188;7.838;2023-04-19T07:10:39;102138.81;;;9.89;45.04
29371;BME280;16357;52.188;7.838;2023-04-19T07:13:11;102109.84;;;9.94;44.48
29371;BME280;16357;52.188;7.838;2023-04-19T07:15:37;102113.88;;;10.00;44.71
29371;BME280;16357;52.188;7.838;2023-04-19T07:18:04;102118.78;;;10.06;44.99
29371;BME280;16357;52.188;7.838;2023-04-19T07:20:31;102125.47;;;10.11;44.88
29371;BME280;16357;52.188;7.838;2023-04-19T07:22:58;102119.38;;;10.21;44.79
29371;BME280;16357;52.188;7.838;2023-04-19T07:25:24;102121.50;;;10.28;44.24
29371;BME280;16357;52.188;7.838;2023-04-19T07:27:52;102119.19;;;10.35;44.05
29371;BME280;16357;52.188;7.838;2023-04-19T07:30:19;102126.75;;;10.41;43.93
29371;BME280;16357;52.188;7.838;2023-04-19T07:32:46;102119.31;;;10.45;44.28
29371;BME280;16357;52.188;7.838;2023-04-19T07:35:12;102117.97;;;10.50;43.69
29371;BME280;16357;52.188;7.838;2023-04-19T07:37:39;102118.44;;;10.55;43.71
29371;BME280;16357;52.188;7.838;2023-04-19T07:40:06;102115.53;;;10.59;43.19
29371;BME280;16357;52.188;7.838;2023-04-19T07:42:32;102108.84;;;10.64;43.40
29371;BME280;16357;52.188;7.838;2023-04-19T07:44:58;102106.75;;;10.68;43.58
29371;BME280;16357;52.188;7.838;2023-04-19T07:47:25;102107.97;;;10.75;43.41
29371;BME280;16357;52.188;7.838;2023-04-19T07:49:52;102109.19;;;10.82;43.06
29371;BME280;16357;52.188;7.838;2023-04-19T07:52:18;102099.78;;;10.88;42.88
29371;BME280;16357;52.188;7.838;2023-04-19T07:54:45;102103.78;;;10.93;42.87
29371;BME280;16357;52.188;7.838;2023-04-19T07:57:12;102094.38;;;10.99;42.99
29371;BME280;16357;52.188;7.838;2023-04-19T07:59:38;102096.53;;;11.05;42.67
29371;BME280;16357;52.188;7.838;2023-04-19T08:02:05;102097.88;;;11.11;43.03
29371;BME280;16357;52.188;7.838;2023-04-19T08:04:32;102093.69;;;11.18;43.00
29371;BME280;16357;52.188;7.838;2023-04-19T08:06:59;102108.34;;;11.25;42.41
29371;BME280;16357;52.188;7.838;2023-04-19T08:09:26;102096.97;;;11.33;41.52
29371;BME280;16357;52.188;7.838;2023-04-19T08:11:52;102099.13;;;11.39;40.69
29371;BME280;16357;52.188;7.838;2023-04-19T08:14:18;102109.50;;;11.43;41.25
29371;BME280;16357;52.188;7.838;2023-04-19T08:17:00;102100.19;;;11.48;41.27
29371;BME280;16357;52.188;7.838;2023-04-19T08:19:29;102106.16;;;11.51;40.49
29371;BME280;16357;52.188;7.838;2023-04-19T08:21:56;102096.00;;;11.55;40.70
29371;BME280;16357;52.188;7.838;2023-04-19T08:24:22;102086.72;;;11.59;40.54
29371;BME280;16357;52.188;7.838;2023-04-19T08:26:48;102086.44;;;11.62;40.88
29371;BME280;16357;52.188;7.838;2023-04-19T08:29:19;102084.22;;;11.67;41.10
29371;BME280;16357;52.188;7.838;2023-04-19T08:31:47;102088.09;;;11.74;41.10
29371;BME280;16357;52.188;7.838;2023-04-19T08:34:14;102087.56;;;11.80;40.76
29371;BME280;16357;52.188;7.838;2023-04-19T08:36:40;102084.25;;;11.88;40.60
29371;BME280;16357;52.188;7.838;2023-04-19T08:39:21;102084.28;;;11.98;40.80
29371;BME280;16357;52.188;7.838;2023-04-19T08:42:17;102084.22;;;12.09;40.64
29371;BME280;16357;52.188;7.838;2023-04-19T08:44:49;102069.25;;;12.16;39.63
29371;BME280;16357;52.188;7.838;2023-04-19T08:47:37;102072.13;;;12.24;39.22
29371;BME280;16357;52.188;7.838;2023-04-19T08:50:21;102076.81;;;12.32;38.43
29371;BME280;16357;52.188;7.838;2023-04-19T08:52:59;102064.69;;;12.38;38.22
29371;BME280;16357;52.188;7.838;2023-04-19T08:55:32;102068.78;;;12.42;38.06
29371;BME280;16357;52.188;7.838;2023-04-19T08:58:00;102073.63;;;12.48;37.61
29371;BME280;16357;52.188;7.838;2023-04-19T09:00:32;102059.91;;;12.51;37.53
29371;BME280;16357;52.188;7.838;2023-04-19T09:02:59;102058.63;;;12.55;37.36
29371;BME280;16357;52.188;7.838;2023-04-19T09:05:26;102056.66;;;12.57;36.99
29371;BME280;16357;52.188;7.838;2023-04-19T09:07:52;102063.50;;;12.61;37.19
29371;BME280;16357;52.188;7.838;2023-04-19T09:10:19;102057.84;;;12.64;36.90
29371;BME280;16357;52.188;7.838;2023-04-19T09:13:02;102060.97;;;12.69;36.57
29371;BME280;16357;52.188;7.838;2023-04-19T09:15:40;102054.28;;;12.73;36.09
29371;BME280;16357;52.188;7.838;2023-04-19T09:18:08;102051.06;;;12.80;36.26
29371;BME280;16357;52.188;7.838;2023-04-19T09:20:37;102052.47;;;12.84;36.64
29371;BME280;16357;52.188;7.838;2023-04-19T09:23:05;102046.69;;;12.88;36.14
29371;BME280;16357;52.188;7.838;2023-04-19T09:25:32;102047.13;;;12.93;35.48
29371;BME280;16357;52.188;7.838;2023-04-19T09:28:19;102039.31;;;13.00;35.72
29371;BME280;16357;52.188;7.838;2023-04-19T09:30:45;102029.25;;;13.02;35.47
29371;BME280;16357;52.188;7.838;2023-04-19T09:33:32;102035.63;;;13.11;35.93
29371;BME280;16357;52.188;7.838;2023-04-19T09:36:00;102048.69;;;13.15;35.35
29371;BME280;16357;52.188;7.838;2023-04-19T09:38:27;102027.84;;;13.17;35.26
29371;BME280;16357;52.188;7.838;2023-04-19T09:41:07;102027.56;;;13.21;36.15
29371;BME280;16357;52.188;7.838;2023-04-19T09:43:33;102029.25;;;13.22;35.95
29371;BME280;16357;52.188;7.838;2023-04-19T09:46:03;102018.09;;;13.26;36.19
29371;BME280;16357;52.188;7.838;2023-04-19T09:48:29;102013.97;;;13.32;36.43
29371;BME280;16357;52.188;7.838;2023-04-19T09:51:00;102008.00;;;13.38;37.01
29371;BME280;16357;52.188;7.838;2023-04-19T09:53:34;102000.06;;;13.46;36.60
29371;BME280;16357;52.188;7.838;2023-04-19T09:56:01;102008.97;;;13.56;36.67
29371;BME280;16357;52.188;7.838;2023-04-19T09:58:30;102010.78;;;13.66;35.87
29371;BME280;16357;52.188;7.838;2023-04-19T10:01:00;102004.84;;;13.72;35.51
29371;BME280;16357;52.188;7.838;2023-04-19T10:03:43;101988.19;;;13.76;35.44
29371;BME280;16357;52.188;7.838;2023-04-19T10:06:10;101987.75;;;13.81;35.51
29371;BME280;16357;52.188;7.838;2023-04-19T10:09:00;101980.78;;;13.88;35.98
29371;BME280;16357;52.188;7.838;2023-04-19T10:11:31;101966.69;;;13.94;36.00
29371;BME280;16357;52.188;7.838;2023-04-19T10:14:10;101977.47;;;14.04;35.94
29371;BME280;16357;52.188;7.838;2023-04-19T10:16:37;101975.72;;;14.13;35.25
29371;BME280;16357;52.188;7.838;2023-04-19T10:19:09;101965.72;;;14.23;35.27
29371;BME280;16357;52.188;7.838;2023-04-19T10:21:37;101958.72;;;14.30;34.58
29371;BME280;16357;52.188;7.838;2023-04-19T10:24:04;101967.06;;;14.37;34.12
29371;BME280;16357;52.188;7.838;2023-04-19T10:32:16;101940.53;;;14.50;33.17
29371;BME280;16357;52.188;7.838;2023-04-19T10:34:44;101935.72;;;14.54;33.70
29371;BME280;16357;52.188;7.838;2023-04-19T10:37:14;101928.16;;;14.57;33.79
29371;BME280;16357;52.188;7.838;2023-04-19T10:39:42;101922.44;;;14.60;33.58
29371;BME280;16357;52.188;7.838;2023-04-19T10:42:09;101910.34;;;14.64;32.90
29371;BME280;16357;52.188;7.838;2023-04-19T10:44:35;101914.28;;;14.70;32.91
29371;BME280;16357;52.188;7.838;2023-04-19T10:47:04;101920.06;;;14.75;33.62
29371;BME280;16357;52.188;7.838;2023-04-19T10:49:30;101917.75;;;14.80;33.30
29371;BME280;16357;52.188;7.838;2023-04-19T10:51:57;101905.59;;;14.84;32.98
29371;BME280;16357;52.188;7.838;2023-04-19T10:54:30;101909.53;;;14.90;32.64
29371;BME280;16357;52.188;7.838;2023-04-19T10:57:01;101900.44;;;14.91;31.67
29371;BME280;16357;52.188;7.838;2023-04-19T10:59:33;101901.97;;;14.93;31.57
29371;BME280;16357;52.188;7.838;2023-04-19T11:02:25;101904.38;;;14.97;31.73
29371;BME280;16357;52.188;7.838;2023-04-19T11:07:18;101890.59;;;15.08;32.09
29371;BME280;16357;52.188;7.838;2023-04-19T11:09:47;101891.66;;;15.15;32.52
29371;BME280;16357;52.188;7.838;2023-04-19T11:12:15;101890.19;;;15.21;31.79
29371;BME280;16357;52.188;7.838;2023-04-19T11:14:45;101892.25;;;15.27;31.96
29371;BME280;16357;52.188;7.838;2023-04-19T11:19:55;101885.53;;;15.31;31.32
29371;BME280;16357;52.188;7.838;2023-04-19T11:24:51;101873.41;;;15.35;31.94
29371;BME280;16357;52.188;7.838;2023-04-19T11:27:18;101867.81;;;15.36;31.79
29371;BME280;16357;52.188;7.838;2023-04-19T11:29:44;101873.72;;;15.40;31.86
29371;BME280;16357;52.188;7.838;2023-04-19T11:32:11;101857.88;;;15.45;31.98
29371;BME280;16357;52.188;7.838;2023-04-19T11:34:39;101858.09;;;15.52;31.93
29371;BME280;16357;52.188;7.838;2023-04-19T11:37:05;101843.06;;;15.57;31.64
29371;BME280;16357;52.188;7.838;2023-04-19T11:39:32;101856.81;;;15.64;31.65
29371;BME280;16357;52.188;7.838;2023-04-19T11:41:58;101847.03;;;15.71;31.21
29371;BME280;16357;52.188;7.838;2023-04-19T11:44:25;101858.91;;;15.78;30.74
29371;BME280;16357;52.188;7.838;2023-04-19T11:47:02;101826.81;;;15.84;31.18
29371;BME280;16357;52.188;7.838;2023-04-19T11:49:31;101841.88;;;15.86;30.50
29371;BME280;16357;52.188;7.838;2023-04-19T11:51:59;101820.72;;;15.90;30.51
29371;BME280;16357;52.188;7.838;2023-04-19T11:54:30;101829.38;;;15.93;29.83
29371;BME280;16357;52.188;7.838;2023-04-19T11:57:01;101819.22;;;15.95;30.36
29371;BME280;16357;52.188;7.838;2023-04-19T11:59:31;101820.94;;;15.96;30.18
29371;BME280;16357;52.188;7.838;2023-04-19T12:02:09;101814.34;;;15.99;29.00
29371;BME280;16357;52.188;7.838;2023-04-19T12:04:36;101842.25;;;15.99;30.06
29371;BME280;16357;52.188;7.838;2023-04-19T12:07:05;101805.19;;;16.00;29.63
29371;BME280;16357;52.188;7.838;2023-04-19T12:09:33;101800.81;;;15.99;29.71
29371;BME280;16357;52.188;7.838;2023-04-19T12:12:01;101812.63;;;15.98;29.49
29371;BME280;16357;52.188;7.838;2023-04-19T12:14:28;101808.91;;;15.99;30.06
29371;BME280;16357;52.188;7.838;2023-04-19T12:17:11;101800.47;;;16.02;30.38
29371;BME280;16357;52.188;7.838;2023-04-19T12:19:44;101800.81;;;16.07;29.12
29371;BME280;16357;52.188;7.838;2023-04-19T12:22:13;101801.50;;;16.09;29.58
29371;BME280;16357;52.188;7.838;2023-04-19T12:24:41;101813.84;;;16.12;29.75
29371;BME280;16357;52.188;7.838;2023-04-19T12:27:08;101785.59;;;16.14;29.44
29371;BME280;16357;52.188;7.838;2023-04-19T12:29:37;101794.06;;;16.19;29.49
29371;BME280;16357;52.188;7.838;2023-04-19T12:32:04;101789.16;;;16.23;29.29
29371;BME280;16357;52.188;7.838;2023-04-19T12:34:30;101794.72;;;16.30;29.13
29371;BME280;16357;52.188;7.838;2023-04-19T12:36:57;101790.69;;;16.34;28.75
29371;BME280;16357;52.188;7.838;2023-04-19T12:39:24;101781.22;;;16.38;28.94
29371;BME280;16357;52.188;7.838;2023-04-19T12:41:50;101777.81;;;16.44;28.95
29371;BME280;16357;52.188;7.838;2023-04-19T12:44:17;101777.97;;;16.51;29.69
29371;BME280;16357;52.188;7.838;2023-04-19T12:46:43;101788.84;;;16.59;29.56
29371;BME280;16357;52.188;7.838;2023-04-19T12:49:10;101761.53;;;16.68;28.89
29371;BME280;16357;52.188;7.838;2023-04-19T12:51:36;101767.13;;;16.75;28.85
29371;BME280;16357;52.188;7.838;2023-04-19T12:54:03;101766.81;;;16.78;28.90
29371;BME280;16357;52.188;7.838;2023-04-19T12:56:29;101760.56;;;16.78;28.96
29371;BME280;16357;52.188;7.838;2023-04-19T12:58:56;101760.56;;;16.78;28.87
29371;BME280;16357;52.188;7.838;2023-04-19T13:01:22;101751.72;;;16.76;28.70
29371;BME280;16357;52.188;7.838;2023-04-19T13:03:49;101755.47;;;16.75;27.63
29371;BME280;16357;52.188;7.838;2023-04-19T13:06:16;101753.75;;;16.74;27.95
29371;BME280;16357;52.188;7.838;2023-04-19T13:08:42;101739.19;;;16.75;27.88
29371;BME280;16357;52.188;7.838;2023-04-19T13:11:14;101738.03;;;16.77;27.76